sensor_id;sensor_type;location;lat;lon;timestamp;P1;durP1;ratioP1;P2;durP2;ratioP2
4986;SDS011;12674;51.500;7.552;2023-03-01T00:01:21;9.67;;;6.73;;
4986;SDS011;12674;51.500;7.552;2023-03-01T00:03:25;10.63;;;7.23;;
4986;SDS011;12674;51.500;7.552;2023-03-01T00:05:29;11.93;;;7.20;;
4986;SDS011;12674;51.500;7.552;2023-03-01T00:07:32;9.40;;;7.13;;
4986;SDS011;12674;51.500;7.552;2023-03-01T00:09:36;8.43;;;6.80;;
4986;SDS011;12674;51.500;7.552;2023-03-01T00:11:39;8.60;;;6.40;;
4986;SDS011;12674;51.500;7.552;2023-03-01T00:13:45;8.57;;;6.33;;
4986;SDS011;12674;51.500;7.552;2023-03-01T00:15:48;9.33;;;6.30;;
4986;SDS011;12674;51.500;7.552;2023-03-01T00:17:52;8.80;;;6.43;;
4986;SDS011;12674;51.500;7.552;2023-03-01T00:19:55;10.00;;;6.07;;
4986;SDS011;12674;51.500;7.552;2023-03-01T00:21:58;7.30;;;6.30;;
4986;SDS011;12674;51.500;7.552;2023-03-01T00:24:02;10.37;;;6.50;;
4986;SDS011;12674;51.500;7.552;2023-03-01T00:26:06;12.20;;;6.37;;
4986;SDS011;12674;51.500;7.552;2023-03-01T00:28:11;10.37;;;7.20;;
4986;SDS011;12674;51.500;7.552;2023-03-01T00:30:17;12.90;;;7.03;;
4986;SDS011;12674;51.500;7.552;2023-03-01T00:32:20;9.10;;;6.50;;
4986;SDS011;12674;51.500;7.552;2023-03-01T00:34:23;8.93;;;6.40;;
4986;SDS011;12674;51.500;7.552;2023-03-01T00:36:27;7.93;;;6.03;;
4986;SDS011;12674;51.500;7.552;2023-03-01T00:38:34;7.67;;;6.20;;
4986;SDS011;12674;51.500;7.552;2023-03-01T00:40:37;15.83;;;7.77;;
4986;SDS011;12674;51.500;7.552;2023-03-01T00:42:40;8.23;;;6.57;;
4986;SDS011;12674;51.500;7.552;2023-03-01T00:44:43;9.80;;;6.70;;
4986;SDS011;12674;51.500;7.552;2023-03-01T00:46:48;11.80;;;6.50;;
4986;SDS011;12674;51.500;7.552;2023-03-01T00:48:51;9.70;;;6.40;;
4986;SDS011;12674;51.500;7.552;2023-03-01T00:50:54;9.90;;;7.50;;
4986;SDS011;12674;51.500;7.552;2023-03-01T00:52:57;10.10;;;6.43;;
4986;SDS011;12674;51.500;7.552;2023-03-01T00:55:00;10.60;;;6.77;;
4986;SDS011;12674;51.500;7.552;2023-03-01T00:57:04;7.87;;;7.00;;
4986;SDS011;12674;51.500;7.552;2023-03-01T00:59:07;7.67;;;6.87;;
4986;SDS011;12674;51.500;7.552;2023-03-01T01:01:11;9.27;;;6.60;;
4986;SDS011;12674;51.500;7.552;2023-03-01T01:03:21;16.77;;;6.40;;
4986;SDS011;12674;51.500;7.552;2023-03-01T01:05:26;14.60;;;6.40;;
4986;SDS011;12674;51.500;7.552;2023-03-01T01:07:29;9.87;;;6.57;;
4986;SDS011;12674;51.500;7.552;2023-03-01T01:09:32;7.47;;;6.20;;
4986;SDS011;12674;51.500;7.552;2023-03-01T01:11:35;12.70;;;6.17;;
4986;SDS011;12674;51.500;7.552;2023-03-01T01:13:39;9.80;;;5.63;;
4986;SDS011;12674;51.500;7.552;2023-03-01T01:15:42;7.97;;;6.70;;
4986;SDS011;12674;51.500;7.552;2023-03-01T01:17:45;11.50;;;6.30;;
4986;SDS011;12674;51.500;7.552;2023-03-01T01:19:49;9.70;;;6.33;;
4986;SDS011;12674;51.500;7.552;2023-03-01T01:21:52;13.53;;;6.50;;
4986;SDS011;12674;51.500;7.552;2023-03-01T01:23:55;7.23;;;6.33;;
4986;SDS011;12674;51.500;7.552;2023-03-01T01:26:03;9.47;;;6.90;;
4986;SDS011;12674;51.500;7.552;2023-03-01T01:28:06;11.17;;;7.30;;
4986;SDS011;12674;51.500;7.552;2023-03-01T01:30:10;11.53;;;7.40;;
4986;SDS011;12674;51.500;7.552;2023-03-01T01:32:14;8.73;;;6.20;;
4986;SDS011;12674;51.500;7.552;2023-03-01T01:34:18;8.43;;;6.60;;
4986;SDS011;12674;51.500;7.552;2023-03-01T01:36:23;8.83;;;7.23;;
4986;SDS011;12674;51.500;7.552;2023-03-01T01:38:26;7.83;;;6.70;;
4986;SDS011;12674;51.500;7.552;2023-03-01T01:40:30;9.57;;;6.70;;
4986;SDS011;12674;51.500;7.552;2023-03-01T01:42:33;10.70;;;6.80;;
4986;SDS011;12674;51.500;7.552;2023-03-01T01:44:36;9.07;;;6.43;;
4986;SDS011;12674;51.500;7.552;2023-03-01T01:46:39;9.37;;;6.87;;
4986;SDS011;12674;51.500;7.552;2023-03-01T01:48:44;7.70;;;6.40;;
4986;SDS011;12674;51.500;7.552;2023-03-01T01:50:51;11.00;;;6.90;;
4986;SDS011;12674;51.500;7.552;2023-03-01T01:52:59;8.33;;;6.40;;
4986;SDS011;12674;51.500;7.552;2023-03-01T01:55:03;9.57;;;7.60;;
4986;SDS011;12674;51.500;7.552;2023-03-01T01:57:09;19.17;;;7.60;;
4986;SDS011;12674;51.500;7.552;2023-03-01T01:59:14;11.00;;;6.97;;
4986;SDS011;12674;51.500;7.552;2023-03-01T02:01:17;8.23;;;7.30;;
4986;SDS011;12674;51.500;7.552;2023-03-01T02:03:20;12.60;;;7.73;;
4986;SDS011;12674;51.500;7.552;2023-03-01T02:05:26;12.67;;;6.73;;
4986;SDS011;12674;51.500;7.552;2023-03-01T02:07:34;9.30;;;6.93;;
4986;SDS011;12674;51.500;7.552;2023-03-01T02:09:39;11.03;;;7.60;;
4986;SDS011;12674;51.500;7.552;2023-03-01T02:11:42;9.07;;;7.20;;
4986;SDS011;12674;51.500;7.552;2023-03-01T02:13:46;12.67;;;8.10;;
4986;SDS011;12674;51.500;7.552;2023-03-01T02:15:49;12.03;;;7.50;;
4986;SDS011;12674;51.500;7.552;2023-03-01T02:17:54;8.47;;;6.30;;
4986;SDS011;12674;51.500;7.552;2023-03-01T02:20:03;10.83;;;7.10;;
4986;SDS011;12674;51.500;7.552;2023-03-01T02:22:14;9.20;;;7.07;;
4986;SDS011;12674;51.500;7.552;2023-03-01T02:24:23;11.80;;;7.60;;
4986;SDS011;12674;51.500;7.552;2023-03-01T02:26:33;9.87;;;7.50;;
4986;SDS011;12674;51.500;7.552;2023-03-01T02:28:41;12.87;;;8.50;;
4986;SDS011;12674;51.500;7.552;2023-03-01T02:30:47;9.70;;;8.00;;
4986;SDS011;12674;51.500;7.552;2023-03-01T02:33:05;12.77;;;7.60;;
4986;SDS011;12674;51.500;7.552;2023-03-01T02:35:08;10.50;;;7.40;;
4986;SDS011;12674;51.500;7.552;2023-03-01T02:37:13;13.60;;;7.80;;
4986;SDS011;12674;51.500;7.552;2023-03-01T02:39:18;13.13;;;7.10;;
4986;SDS011;12674;51.500;7.552;2023-03-01T02:41:24;9.40;;;7.27;;
4986;SDS011;12674;51.500;7.552;2023-03-01T02:43:30;11.83;;;7.50;;
4986;SDS011;12674;51.500;7.552;2023-03-01T02:45:35;15.00;;;8.30;;
4986;SDS011;12674;51.500;7.552;2023-03-01T02:47:38;12.90;;;8.13;;
4986;SDS011;12674;51.500;7.552;2023-03-01T02:49:41;11.60;;;8.67;;
4986;SDS011;12674;51.500;7.552;2023-03-01T02:51:45;11.10;;;7.87;;
4986;SDS011;12674;51.500;7.552;2023-03-01T02:53:57;10.80;;;6.90;;
4986;SDS011;12674;51.500;7.552;2023-03-01T02:56:05;7.93;;;6.67;;
4986;SDS011;12674;51.500;7.552;2023-03-01T02:58:14;10.40;;;7.20;;
4986;SDS011;12674;51.500;7.552;2023-03-01T03:00:18;11.50;;;7.77;;
4986;SDS011;12674;51.500;7.552;2023-03-01T03:02:24;12.47;;;8.70;;
4986;SDS011;12674;51.500;7.552;2023-03-01T03:04:51;12.70;;;7.20;;
4986;SDS011;12674;51.500;7.552;2023-03-01T03:06:54;11.50;;;7.70;;
4986;SDS011;12674;51.500;7.552;2023-03-01T03:08:57;10.20;;;7.63;;
4986;SDS011;12674;51.500;7.552;2023-03-01T03:11:00;10.53;;;7.70;;
4986;SDS011;12674;51.500;7.552;2023-03-01T03:13:04;8.97;;;6.27;;
4986;SDS011;12674;51.500;7.552;2023-03-01T03:15:08;9.30;;;6.83;;
4986;SDS011;12674;51.500;7.552;2023-03-01T03:17:14;8.90;;;6.40;;
4986;SDS011;12674;51.500;7.552;2023-03-01T03:19:18;10.60;;;8.23;;
4986;SDS011;12674;51.500;7.552;2023-03-01T03:21:21;15.50;;;7.70;;
4986;SDS011;12674;51.500;7.552;2023-03-01T03:23:24;13.37;;;9.07;;
4986;SDS011;12674;51.500;7.552;2023-03-01T03:25:28;14.40;;;8.80;;
4986;SDS011;12674;51.500;7.552;2023-03-01T03:27:31;15.30;;;8.90;;
4986;SDS011;12674;51.500;7.552;2023-03-01T03:29:35;14.03;;;8.13;;
4986;SDS011;12674;51.500;7.552;2023-03-01T03:31:38;12.23;;;8.60;;
4986;SDS011;12674;51.500;7.552;2023-03-01T03:33:41;9.60;;;8.50;;
4986;SDS011;12674;51.500;7.552;2023-03-01T03:35:46;13.57;;;8.67;;
4986;SDS011;12674;51.500;7.552;2023-03-01T03:37:51;15.53;;;8.30;;
4986;SDS011;12674;51.500;7.552;2023-03-01T03:40:08;17.57;;;9.10;;
4986;SDS011;12674;51.500;7.552;2023-03-01T03:42:16;13.13;;;8.40;;
4986;SDS011;12674;51.500;7.552;2023-03-01T03:44:19;9.67;;;7.93;;
4986;SDS011;12674;51.500;7.552;2023-03-01T03:46:22;11.97;;;8.77;;
4986;SDS011;12674;51.500;7.552;2023-03-01T03:48:25;11.27;;;7.97;;
4986;SDS011;12674;51.500;7.552;2023-03-01T03:50:29;12.63;;;8.70;;
4986;SDS011;12674;51.500;7.552;2023-03-01T03:52:33;10.80;;;8.20;;
4986;SDS011;12674;51.500;7.552;2023-03-01T03:54:36;13.80;;;8.73;;
4986;SDS011;12674;51.500;7.552;2023-03-01T03:56:39;13.93;;;8.30;;
4986;SDS011;12674;51.500;7.552;2023-03-01T03:58:43;18.60;;;7.83;;
4986;SDS011;12674;51.500;7.552;2023-03-01T04:00:47;11.53;;;7.70;;
4986;SDS011;12674;51.500;7.552;2023-03-01T04:02:51;12.17;;;8.60;;
4986;SDS011;12674;51.500;7.552;2023-03-01T04:04:57;15.00;;;8.03;;
4986;SDS011;12674;51.500;7.552;2023-03-01T04:07:00;14.43;;;8.00;;
4986;SDS011;12674;51.500;7.552;2023-03-01T04:09:05;13.03;;;8.30;;
4986;SDS011;12674;51.500;7.552;2023-03-01T04:11:08;14.63;;;9.17;;
4986;SDS011;12674;51.500;7.552;2023-03-01T04:13:30;15.40;;;7.90;;
4986;SDS011;12674;51.500;7.552;2023-03-01T04:15:33;13.03;;;8.57;;
4986;SDS011;12674;51.500;7.552;2023-03-01T04:21:10;13.37;;;8.43;;
4986;SDS011;12674;51.500;7.552;2023-03-01T04:23:14;10.60;;;7.40;;
4986;SDS011;12674;51.500;7.552;2023-03-01T04:25:22;11.93;;;8.17;;
4986;SDS011;12674;51.500;7.552;2023-03-01T04:27:26;13.70;;;8.40;;
4986;SDS011;12674;51.500;7.552;2023-03-01T04:29:29;14.60;;;9.33;;
4986;SDS011;12674;51.500;7.552;2023-03-01T04:31:32;14.70;;;8.47;;
4986;SDS011;12674;51.500;7.552;2023-03-01T04:33:35;13.67;;;7.87;;
4986;SDS011;12674;51.500;7.552;2023-03-01T04:35:38;12.27;;;9.20;;
4986;SDS011;12674;51.500;7.552;2023-03-01T04:37:42;19.23;;;8.43;;
4986;SDS011;12674;51.500;7.552;2023-03-01T04:39:46;15.13;;;10.10;;
4986;SDS011;12674;51.500;7.552;2023-03-01T04:41:50;13.40;;;8.57;;
4986;SDS011;12674;51.500;7.552;2023-03-01T04:43:54;12.60;;;9.77;;
4986;SDS011;12674;51.500;7.552;2023-03-01T04:46:01;10.93;;;8.80;;
4986;SDS011;12674;51.500;7.552;2023-03-01T04:48:05;19.93;;;9.33;;
4986;SDS011;12674;51.500;7.552;2023-03-01T04:50:09;16.83;;;8.97;;
4986;SDS011;12674;51.500;7.552;2023-03-01T04:52:14;12.10;;;8.80;;
4986;SDS011;12674;51.500;7.552;2023-03-01T04:54:18;13.57;;;9.03;;
4986;SDS011;12674;51.500;7.552;2023-03-01T04:56:21;13.20;;;8.60;;
4986;SDS011;12674;51.500;7.552;2023-03-01T04:58:26;13.67;;;8.63;;
4986;SDS011;12674;51.500;7.552;2023-03-01T05:00:29;21.33;;;9.13;;
4986;SDS011;12674;51.500;7.552;2023-03-01T05:02:33;13.07;;;9.20;;
4986;SDS011;12674;51.500;7.552;2023-03-01T05:04:36;12.57;;;8.70;;
4986;SDS011;12674;51.500;7.552;2023-03-01T05:06:39;14.83;;;8.50;;
4986;SDS011;12674;51.500;7.552;2023-03-01T05:08:42;12.30;;;8.23;;
4986;SDS011;12674;51.500;7.552;2023-03-01T05:10:46;12.10;;;8.90;;
4986;SDS011;12674;51.500;7.552;2023-03-01T05:12:51;12.33;;;9.23;;
4986;SDS011;12674;51.500;7.552;2023-03-01T05:14:56;19.33;;;8.90;;
4986;SDS011;12674;51.500;7.552;2023-03-01T05:16:59;11.77;;;8.30;;
4986;SDS011;12674;51.500;7.552;2023-03-01T05:19:05;13.93;;;10.67;;
4986;SDS011;12674;51.500;7.552;2023-03-01T05:21:13;13.07;;;8.73;;
4986;SDS011;12674;51.500;7.552;2023-03-01T05:23:18;12.07;;;9.40;;
4986;SDS011;12674;51.500;7.552;2023-03-01T05:25:21;9.80;;;7.77;;
4986;SDS011;12674;51.500;7.552;2023-03-01T05:27:24;12.00;;;8.90;;
4986;SDS011;12674;51.500;7.552;2023-03-01T05:29:27;11.60;;;8.50;;
4986;SDS011;12674;51.500;7.552;2023-03-01T05:31:34;22.47;;;8.50;;
4986;SDS011;12674;51.500;7.552;2023-03-01T05:33:37;13.23;;;9.17;;
4986;SDS011;12674;51.500;7.552;2023-03-01T05:35:40;16.00;;;8.87;;
4986;SDS011;12674;51.500;7.552;2023-03-01T05:37:44;15.70;;;9.20;;
4986;SDS011;12674;51.500;7.552;2023-03-01T05:39:47;20.93;;;9.10;;
4986;SDS011;12674;51.500;7.552;2023-03-01T05:41:52;16.47;;;9.57;;
4986;SDS011;12674;51.500;7.552;2023-03-01T05:43:55;11.73;;;8.77;;
4986;SDS011;12674;51.500;7.552;2023-03-01T05:45:58;21.93;;;9.50;;
4986;SDS011;12674;51.500;7.552;2023-03-01T05:48:02;14.43;;;9.00;;
4986;SDS011;12674;51.500;7.552;2023-03-01T05:50:06;19.90;;;8.10;;
4986;SDS011;12674;51.500;7.552;2023-03-01T05:52:10;21.20;;;10.07;;
4986;SDS011;12674;51.500;7.552;2023-03-01T05:54:13;16.40;;;8.43;;
4986;SDS011;12674;51.500;7.552;2023-03-01T05:56:16;14.93;;;8.70;;
4986;SDS011;12674;51.500;7.552;2023-03-01T05:58:20;11.47;;;8.10;;
4986;SDS011;12674;51.500;7.552;2023-03-01T06:00:23;16.33;;;8.83;;
4986;SDS011;12674;51.500;7.552;2023-03-01T06:02:26;17.43;;;8.73;;
4986;SDS011;12674;51.500;7.552;2023-03-01T06:04:32;16.43;;;9.00;;
4986;SDS011;12674;51.500;7.552;2023-03-01T06:06:35;15.97;;;9.10;;
4986;SDS011;12674;51.500;7.552;2023-03-01T06:08:39;12.95;;;9.70;;
4986;SDS011;12674;51.500;7.552;2023-03-01T06:10:42;16.30;;;10.00;;
4986;SDS011;12674;51.500;7.552;2023-03-01T06:12:45;17.17;;;8.60;;
4986;SDS011;12674;51.500;7.552;2023-03-01T06:14:48;18.80;;;10.20;;
4986;SDS011;12674;51.500;7.552;2023-03-01T06:16:51;15.70;;;8.80;;
4986;SDS011;12674;51.500;7.552;2023-03-01T06:18:53;13.80;;;8.80;;
4986;SDS011;12674;51.500;7.552;2023-03-01T06:20:58;15.27;;;9.43;;
4986;SDS011;12674;51.500;7.552;2023-03-01T06:23:01;20.03;;;9.13;;
4986;SDS011;12674;51.500;7.552;2023-03-01T06:25:04;13.53;;;9.07;;
4986;SDS011;12674;51.500;7.552;2023-03-01T06:27:08;12.93;;;8.73;;
4986;SDS011;12674;51.500;7.552;2023-03-01T06:29:11;13.57;;;8.47;;
4986;SDS011;12674;51.500;7.552;2023-03-01T06:31:15;13.40;;;9.00;;
4986;SDS011;12674;51.500;7.552;2023-03-01T06:33:19;27.73;;;10.20;;
4986;SDS011;12674;51.500;7.552;2023-03-01T06:35:24;16.53;;;9.10;;
4986;SDS011;12674;51.500;7.552;2023-03-01T06:37:32;12.83;;;9.87;;
4986;SDS011;12674;51.500;7.552;2023-03-01T06:39:36;18.17;;;9.67;;
4986;SDS011;12674;51.500;7.552;2023-03-01T06:41:40;15.63;;;10.57;;
4986;SDS011;12674;51.500;7.552;2023-03-01T06:43:43;18.07;;;11.63;;
4986;SDS011;12674;51.500;7.552;2023-03-01T06:45:45;12.90;;;9.20;;
4986;SDS011;12674;51.500;7.552;2023-03-01T06:47:48;22.73;;;11.03;;
4986;SDS011;12674;51.500;7.552;2023-03-01T06:49:51;24.20;;;13.43;;
4986;SDS011;12674;51.500;7.552;2023-03-01T06:51:54;22.87;;;13.10;;
4986;SDS011;12674;51.500;7.552;2023-03-01T06:53:59;37.40;;;20.47;;
4986;SDS011;12674;51.500;7.552;2023-03-01T06:56:03;49.73;;;22.57;;
4986;SDS011;12674;51.500;7.552;2023-03-01T06:58:08;45.73;;;19.97;;
4986;SDS011;12674;51.500;7.552;2023-03-01T07:00:12;42.90;;;18.73;;
4986;SDS011;12674;51.500;7.552;2023-03-01T07:02:16;55.50;;;28.13;;
4986;SDS011;12674;51.500;7.552;2023-03-01T07:04:18;46.60;;;23.47;;
4986;SDS011;12674;51.500;7.552;2023-03-01T07:06:21;21.07;;;12.70;;
4986;SDS011;12674;51.500;7.552;2023-03-01T07:08:25;19.90;;;10.43;;
4986;SDS011;12674;51.500;7.552;2023-03-01T07:10:29;18.60;;;10.87;;
4986;SDS011;12674;51.500;7.552;2023-03-01T07:12:32;17.80;;;12.73;;
4986;SDS011;12674;51.500;7.552;2023-03-01T07:14:35;15.13;;;9.77;;
4986;SDS011;12674;51.500;7.552;2023-03-01T07:16:39;18.33;;;10.80;;
4986;SDS011;12674;51.500;7.552;2023-03-01T07:18:42;21.40;;;11.30;;
4986;SDS011;12674;51.500;7.552;2023-03-01T07:20:45;15.83;;;10.87;;
4986;SDS011;12674;51.500;7.552;2023-03-01T07:22:48;12.83;;;10.00;;
4986;SDS011;12674;51.500;7.552;2023-03-01T07:24:51;18.60;;;10.20;;
4986;SDS011;12674;51.500;7.552;2023-03-01T07:26:55;13.17;;;9.50;;
4986;SDS011;12674;51.500;7.552;2023-03-01T07:28:59;17.37;;;9.23;;
4986;SDS011;12674;51.500;7.552;2023-03-01T07:31:02;15.90;;;9.87;;
4986;SDS011;12674;51.500;7.552;2023-03-01T07:33:05;15.53;;;10.70;;
4986;SDS011;12674;51.500;7.552;2023-03-01T07:35:09;13.50;;;9.60;;
4986;SDS011;12674;51.500;7.552;2023-03-01T07:37:12;16.00;;;9.13;;
4986;SDS011;12674;51.500;7.552;2023-03-01T07:39:15;17.53;;;10.30;;
4986;SDS011;12674;51.500;7.552;2023-03-01T07:41:20;13.10;;;9.50;;
4986;SDS011;12674;51.500;7.552;2023-03-01T07:43:24;15.83;;;9.73;;
4986;SDS011;12674;51.500;7.552;2023-03-01T07:45:28;13.97;;;9.00;;
4986;SDS011;12674;51.500;7.552;2023-03-01T07:47:32;18.13;;;10.67;;
4986;SDS011;12674;51.500;7.552;2023-03-01T07:49:35;17.23;;;8.93;;
4986;SDS011;12674;51.500;7.552;2023-03-01T07:51:38;17.50;;;10.20;;
4986;SDS011;12674;51.500;7.552;2023-03-01T07:53:41;24.10;;;9.93;;
4986;SDS011;12674;51.500;7.552;2023-03-01T07:55:44;15.50;;;8.97;;
4986;SDS011;12674;51.500;7.552;2023-03-01T07:57:47;23.30;;;8.53;;
4986;SDS011;12674;51.500;7.552;2023-03-01T07:59:52;12.70;;;8.30;;
4986;SDS011;12674;51.500;7.552;2023-03-01T08:01:54;10.47;;;8.10;;
4986;SDS011;12674;51.500;7.552;2023-03-01T08:03:58;13.10;;;7.73;;
4986;SDS011;12674;51.500;7.552;2023-03-01T08:06:01;15.80;;;8.67;;
4986;SDS011;12674;51.500;7.552;2023-03-01T08:08:05;12.77;;;8.60;;
4986;SDS011;12674;51.500;7.552;2023-03-01T08:10:08;17.67;;;8.53;;
4986;SDS011;12674;51.500;7.552;2023-03-01T08:12:12;13.60;;;8.00;;
4986;SDS011;12674;51.500;7.552;2023-03-01T08:14:17;10.27;;;8.50;;
4986;SDS011;12674;51.500;7.552;2023-03-01T08:16:21;15.60;;;8.50;;
4986;SDS011;12674;51.500;7.552;2023-03-01T08:18:24;15.67;;;8.67;;
4986;SDS011;12674;51.500;7.552;2023-03-01T08:20:27;11.00;;;8.60;;
4986;SDS011;12674;51.500;7.552;2023-03-01T08:22:30;11.83;;;8.80;;
4986;SDS011;12674;51.500;7.552;2023-03-01T08:24:33;16.77;;;9.50;;
4986;SDS011;12674;51.500;7.552;2023-03-01T08:26:36;13.90;;;8.77;;
4986;SDS011;12674;51.500;7.552;2023-03-01T08:28:39;12.60;;;8.07;;
4986;SDS011;12674;51.500;7.552;2023-03-01T08:30:43;11.73;;;8.60;;
4986;SDS011;12674;51.500;7.552;2023-03-01T08:32:48;11.93;;;8.70;;
4986;SDS011;12674;51.500;7.552;2023-03-01T08:34:52;11.80;;;8.47;;
4986;SDS011;12674;51.500;7.552;2023-03-01T08:36:55;14.20;;;8.93;;
4986;SDS011;12674;51.500;7.552;2023-03-01T08:38:58;10.67;;;7.87;;
4986;SDS011;12674;51.500;7.552;2023-03-01T08:41:01;10.67;;;7.43;;
4986;SDS011;12674;51.500;7.552;2023-03-01T08:43:05;10.23;;;7.60;;
4986;SDS011;12674;51.500;7.552;2023-03-01T08:45:08;7.47;;;6.50;;
4986;SDS011;12674;51.500;7.552;2023-03-01T08:47:12;18.33;;;8.77;;
4986;SDS011;12674;51.500;7.552;2023-03-01T08:49:17;11.53;;;7.10;;
4986;SDS011;12674;51.500;7.552;2023-03-01T08:51:21;13.67;;;7.60;;
4986;SDS011;12674;51.500;7.552;2023-03-01T08:53:24;10.03;;;7.60;;
4986;SDS011;12674;51.500;7.552;2023-03-01T08:55:28;14.57;;;8.00;;
4986;SDS011;12674;51.500;7.552;2023-03-01T08:57:31;8.13;;;7.10;;
4986;SDS011;12674;51.500;7.552;2023-03-01T08:59:34;10.77;;;7.73;;
4986;SDS011;12674;51.500;7.552;2023-03-01T09:01:38;14.00;;;7.70;;
4986;SDS011;12674;51.500;7.552;2023-03-01T09:03:44;8.00;;;6.80;;
4986;SDS011;12674;51.500;7.552;2023-03-01T09:05:49;15.63;;;7.60;;
4986;SDS011;12674;51.500;7.552;2023-03-01T09:07:53;9.70;;;6.97;;
4986;SDS011;12674;51.500;7.552;2023-03-01T09:09:56;9.93;;;7.20;;
4986;SDS011;12674;51.500;7.552;2023-03-01T09:11:59;10.17;;;7.27;;
4986;SDS011;12674;51.500;7.552;2023-03-01T09:14:04;9.40;;;7.00;;
4986;SDS011;12674;51.500;7.552;2023-03-01T09:16:08;11.63;;;7.40;;
4986;SDS011;12674;51.500;7.552;2023-03-01T09:18:11;6.80;;;6.10;;
4986;SDS011;12674;51.500;7.552;2023-03-01T09:20:13;7.67;;;5.90;;
4986;SDS011;12674;51.500;7.552;2023-03-01T09:22:18;9.00;;;6.73;;
4986;SDS011;12674;51.500;7.552;2023-03-01T09:24:22;13.83;;;5.80;;
4986;SDS011;12674;51.500;7.552;2023-03-01T09:26:26;9.37;;;6.17;;
4986;SDS011;12674;51.500;7.552;2023-03-01T09:28:29;7.77;;;5.97;;
4986;SDS011;12674;51.500;7.552;2023-03-01T09:30:32;8.10;;;6.60;;
4986;SDS011;12674;51.500;7.552;2023-03-01T09:32:35;10.43;;;6.30;;
4986;SDS011;12674;51.500;7.552;2023-03-01T09:34:38;8.47;;;6.30;;
4986;SDS011;12674;51.500;7.552;2023-03-01T09:36:57;11.07;;;6.03;;
4986;SDS011;12674;51.500;7.552;2023-03-01T09:39:03;12.13;;;5.90;;
4986;SDS011;12674;51.500;7.552;2023-03-01T09:41:09;12.30;;;6.07;;
4986;SDS011;12674;51.500;7.552;2023-03-01T09:43:15;8.53;;;5.50;;
4986;SDS011;12674;51.500;7.552;2023-03-01T09:45:25;6.60;;;5.33;;
4986;SDS011;12674;51.500;7.552;2023-03-01T09:47:31;10.93;;;6.60;;
4986;SDS011;12674;51.500;7.552;2023-03-01T09:49:35;7.77;;;5.00;;
4986;SDS011;12674;51.500;7.552;2023-03-01T09:51:39;14.50;;;5.40;;
4986;SDS011;12674;51.500;7.552;2023-03-01T09:53:43;16.23;;;5.43;;
4986;SDS011;12674;51.500;7.552;2023-03-01T09:55:48;7.50;;;5.33;;
4986;SDS011;12674;51.500;7.552;2023-03-01T09:57:55;7.30;;;5.77;;
4986;SDS011;12674;51.500;7.552;2023-03-01T10:00:05;7.97;;;5.43;;
4986;SDS011;12674;51.500;7.552;2023-03-01T10:02:21;6.97;;;5.43;;
4986;SDS011;12674;51.500;7.552;2023-03-01T10:04:28;10.90;;;6.00;;
4986;SDS011;12674;51.500;7.552;2023-03-01T10:06:39;9.17;;;5.00;;
4986;SDS011;12674;51.500;7.552;2023-03-01T10:08:47;6.33;;;4.80;;
4986;SDS011;12674;51.500;7.552;2023-03-01T10:10:57;8.50;;;5.23;;
4986;SDS011;12674;51.500;7.552;2023-03-01T10:13:01;7.63;;;5.10;;
4986;SDS011;12674;51.500;7.552;2023-03-01T10:15:07;12.83;;;5.30;;
4986;SDS011;12674;51.500;7.552;2023-03-01T10:17:17;7.57;;;4.90;;
4986;SDS011;12674;51.500;7.552;2023-03-01T10:19:27;7.10;;;5.00;;
4986;SDS011;12674;51.500;7.552;2023-03-01T10:21:34;17.20;;;5.10;;
4986;SDS011;12674;51.500;7.552;2023-03-01T10:23:39;7.47;;;5.47;;
4986;SDS011;12674;51.500;7.552;2023-03-01T10:25:45;8.73;;;5.43;;
4986;SDS011;12674;51.500;7.552;2023-03-01T10:27:53;8.70;;;5.60;;
4986;SDS011;12674;51.500;7.552;2023-03-01T10:29:59;7.93;;;5.27;;
4986;SDS011;12674;51.500;7.552;2023-03-01T10:32:06;5.70;;;5.07;;
4986;SDS011;12674;51.500;7.552;2023-03-01T10:34:12;8.13;;;6.17;;
4986;SDS011;12674;51.500;7.552;2023-03-01T10:36:16;7.70;;;5.73;;
4986;SDS011;12674;51.500;7.552;2023-03-01T10:38:19;8.30;;;4.80;;
4986;SDS011;12674;51.500;7.552;2023-03-01T10:40:23;7.83;;;5.63;;
4986;SDS011;12674;51.500;7.552;2023-03-01T10:42:27;7.07;;;5.17;;
4986;SDS011;12674;51.500;7.552;2023-03-01T10:44:37;6.33;;;5.00;;
4986;SDS011;12674;51.500;7.552;2023-03-01T10:46:42;7.47;;;5.30;;
4986;SDS011;12674;51.500;7.552;2023-03-01T10:48:45;8.13;;;5.30;;
4986;SDS011;12674;51.500;7.552;2023-03-01T10:50:49;8.40;;;6.10;;
4986;SDS011;12674;51.500;7.552;2023-03-01T10:52:57;6.20;;;4.83;;
4986;SDS011;12674;51.500;7.552;2023-03-01T10:55:02;10.57;;;5.20;;
4986;SDS011;12674;51.500;7.552;2023-03-01T10:57:10;9.40;;;6.00;;
4986;SDS011;12674;51.500;7.552;2023-03-01T10:59:31;10.23;;;5.87;;
4986;SDS011;12674;51.500;7.552;2023-03-01T11:01:36;6.93;;;5.27;;
4986;SDS011;12674;51.500;7.552;2023-03-01T11:03:40;9.93;;;5.30;;
4986;SDS011;12674;51.500;7.552;2023-03-01T11:05:53;13.50;;;6.60;;
4986;SDS011;12674;51.500;7.552;2023-03-01T11:08:01;7.20;;;5.37;;
4986;SDS011;12674;51.500;7.552;2023-03-01T11:10:11;6.03;;;4.87;;
4986;SDS011;12674;51.500;7.552;2023-03-01T11:12:15;7.83;;;5.03;;
4986;SDS011;12674;51.500;7.552;2023-03-01T11:14:20;8.60;;;5.40;;
4986;SDS011;12674;51.500;7.552;2023-03-01T11:16:31;10.20;;;5.90;;
4986;SDS011;12674;51.500;7.552;2023-03-01T11:18:37;10.10;;;5.20;;
4986;SDS011;12674;51.500;7.552;2023-03-01T11:20:48;6.83;;;5.40;;
4986;SDS011;12674;51.500;7.552;2023-03-01T11:22:54;9.00;;;5.60;;
4986;SDS011;12674;51.500;7.552;2023-03-01T11:24:59;7.27;;;5.70;;
4986;SDS011;12674;51.500;7.552;2023-03-01T11:27:20;6.60;;;5.00;;
4986;SDS011;12674;51.500;7.552;2023-03-01T11:29:26;7.47;;;5.10;;
4986;SDS011;12674;51.500;7.552;2023-03-01T11:31:43;6.20;;;5.00;;
4986;SDS011;12674;51.500;7.552;2023-03-01T11:34:02;8.53;;;6.00;;
4986;SDS011;12674;51.500;7.552;2023-03-01T11:36:19;10.70;;;5.60;;
4986;SDS011;12674;51.500;7.552;2023-03-01T11:38:29;6.97;;;5.70;;
4986;SDS011;12674;51.500;7.552;2023-03-01T11:40:37;11.80;;;5.80;;
4986;SDS011;12674;51.500;7.552;2023-03-01T11:42:44;7.13;;;5.10;;
4986;SDS011;12674;51.500;7.552;2023-03-01T11:44:54;8.07;;;5.90;;
4986;SDS011;12674;51.500;7.552;2023-03-01T11:47:03;8.93;;;4.93;;
4986;SDS011;12674;51.500;7.552;2023-03-01T11:49:28;8.77;;;5.93;;
4986;SDS011;12674;51.500;7.552;2023-03-01T11:51:43;8.37;;;5.20;;
4986;SDS011;12674;51.500;7.552;2023-03-01T11:53:53;7.97;;;5.60;;
4986;SDS011;12674;51.500;7.552;2023-03-01T11:56:11;8.83;;;5.43;;
4986;SDS011;12674;51.500;7.552;2023-03-01T11:58:26;7.97;;;5.77;;
4986;SDS011;12674;51.500;7.552;2023-03-01T12:00:42;9.43;;;5.37;;
4986;SDS011;12674;51.500;7.552;2023-03-01T12:03:16;8.77;;;5.67;;
4986;SDS011;12674;51.500;7.552;2023-03-01T12:05:39;8.80;;;6.03;;
4986;SDS011;12674;51.500;7.552;2023-03-01T12:07:54;9.40;;;5.60;;
4986;SDS011;12674;51.500;7.552;2023-03-01T12:10:06;11.03;;;5.33;;
4986;SDS011;12674;51.500;7.552;2023-03-01T12:12:32;8.30;;;5.67;;
4986;SDS011;12674;51.500;7.552;2023-03-01T12:14:44;9.10;;;5.90;;
4986;SDS011;12674;51.500;7.552;2023-03-01T12:17:09;8.77;;;5.80;;
4986;SDS011;12674;51.500;7.552;2023-03-01T12:19:26;9.23;;;5.77;;
4986;SDS011;12674;51.500;7.552;2023-03-01T12:21:42;8.47;;;5.40;;
4986;SDS011;12674;51.500;7.552;2023-03-01T12:24:03;7.17;;;5.67;;
4986;SDS011;12674;51.500;7.552;2023-03-01T12:26:20;12.30;;;6.17;;
4986;SDS011;12674;51.500;7.552;2023-03-01T12:28:32;9.90;;;5.97;;
4986;SDS011;12674;51.500;7.552;2023-03-01T12:33:51;11.90;;;6.17;;
4986;SDS011;12674;51.500;7.552;2023-03-01T12:38:37;8.80;;;5.93;;
4986;SDS011;12674;51.500;7.552;2023-03-01T12:40:48;8.40;;;5.50;;
4986;SDS011;12674;51.500;7.552;2023-03-01T12:43:12;8.30;;;5.83;;
4986;SDS011;12674;51.500;7.552;2023-03-01T12:45:26;7.53;;;5.83;;
4986;SDS011;12674;51.500;7.552;2023-03-01T12:47:42;7.50;;;5.77;;
4986;SDS011;12674;51.500;7.552;2023-03-01T12:49:55;9.97;;;5.10;;